sensor_id;sensor_type;location;lat;lon;timestamp;temperature;humidity
19665;DHT22;9980;51.020;7.772;2022-09-09T00:04:00;17.10;98.00
19665;DHT22;9980;51.020;7.772;2022-09-09T00:06:34;17.10;98.20
19665;DHT22;9980;51.020;7.772;2022-09-09T00:09:15;17.10;98.00
19665;DHT22;9980;51.020;7.772;2022-09-09T00:11:48;17.10;98.00
19665;DHT22;9980;51.020;7.772;2022-09-09T00:17:37;17.10;98.20
19665;DHT22;9980;51.020;7.772;2022-09-09T00:20:24;17.10;98.50
19665;DHT22;9980;51.020;7.772;2022-09-09T00:23:35;17.10;98.20
19665;DHT22;9980;51.020;7.772;2022-09-09T00:29:08;17.10;98.00
19665;DHT22;9980;51.020;7.772;2022-09-09T00:31:36;17.10;98.00
19665;DHT22;9980;51.020;7.772;2022-09-09T00:34:13;17.10;98.00
19665;DHT22;9980;51.020;7.772;2022-09-09T00:36:44;17.00;98.40
19665;DHT22;9980;51.020;7.772;2022-09-09T00:39:29;17.10;98.40
19665;DHT22;9980;51.020;7.772;2022-09-09T00:42:21;17.10;98.60
19665;DHT22;9980;51.020;7.772;2022-09-09T00:47:49;17.10;98.60
19665;DHT22;9980;51.020;7.772;2022-09-09T00:54:03;17.10;98.20
19665;DHT22;9980;51.020;7.772;2022-09-09T00:56:34;17.10;98.10
19665;DHT22;9980;51.020;7.772;2022-09-09T00:59:48;17.10;98.00
19665;DHT22;9980;51.020;7.772;2022-09-09T01:02:48;17.10;98.30
19665;DHT22;9980;51.020;7.772;2022-09-09T01:08:01;17.10;98.20
19665;DHT22;9980;51.020;7.772;2022-09-09T01:10:50;17.10;98.30
19665;DHT22;9980;51.020;7.772;2022-09-09T01:13:29;17.10;98.70
19665;DHT22;9980;51.020;7.772;2022-09-09T01:16:08;17.00;98.60
19665;DHT22;9980;51.020;7.772;2022-09-09T01:18:43;17.10;98.70
19665;DHT22;9980;51.020;7.772;2022-09-09T01:21:33;17.10;98.60
19665;DHT22;9980;51.020;7.772;2022-09-09T01:27:04;17.10;98.60
19665;DHT22;9980;51.020;7.772;2022-09-09T01:29:33;17.10;98.40
19665;DHT22;9980;51.020;7.772;2022-09-09T01:32:03;17.10;98.20
19665;DHT22;9980;51.020;7.772;2022-09-09T01:35:39;17.10;98.30
19665;DHT22;9980;51.020;7.772;2022-09-09T01:38:24;17.10;98.30
19665;DHT22;9980;51.020;7.772;2022-09-09T01:40:53;17.10;98.20
19665;DHT22;9980;51.020;7.772;2022-09-09T01:43:25;17.10;98.40
19665;DHT22;9980;51.020;7.772;2022-09-09T01:45:56;17.10;98.30
19665;DHT22;9980;51.020;7.772;2022-09-09T01:48:27;17.00;98.20
19665;DHT22;9980;51.020;7.772;2022-09-09T01:51:04;17.00;98.20
19665;DHT22;9980;51.020;7.772;2022-09-09T01:53:31;17.00;98.20
19665;DHT22;9980;51.020;7.772;2022-09-09T02:04:39;17.00;98.60
19665;DHT22;9980;51.020;7.772;2022-09-09T02:10:27;16.90;98.40
19665;DHT22;9980;51.020;7.772;2022-09-09T02:13:14;16.90;98.50
19665;DHT22;9980;51.020;7.772;2022-09-09T02:15:53;16.90;98.60
19665;DHT22;9980;51.020;7.772;2022-09-09T02:18:28;16.90;98.80
19665;DHT22;9980;51.020;7.772;2022-09-09T02:21:02;16.90;99.00
19665;DHT22;9980;51.020;7.772;2022-09-09T02:23:30;16.90;99.00
19665;DHT22;9980;51.020;7.772;2022-09-09T02:26:02;16.90;99.00
19665;DHT22;9980;51.020;7.772;2022-09-09T02:28:31;16.90;99.00
19665;DHT22;9980;51.020;7.772;2022-09-09T02:31:01;17.00;99.40
19665;DHT22;9980;51.020;7.772;2022-09-09T02:33:40;16.90;98.80
19665;DHT22;9980;51.020;7.772;2022-09-09T02:36:11;17.00;98.80
19665;DHT22;9980;51.020;7.772;2022-09-09T02:38:46;17.00;98.60
19665;DHT22;9980;51.020;7.772;2022-09-09T02:41:24;17.00;98.70
19665;DHT22;9980;51.020;7.772;2022-09-09T02:43:55;17.00;98.60
19665;DHT22;9980;51.020;7.772;2022-09-09T02:46:36;17.00;98.50
19665;DHT22;9980;51.020;7.772;2022-09-09T02:58:09;16.90;98.60
19665;DHT22;9980;51.020;7.772;2022-09-09T03:00:40;16.90;98.70
19665;DHT22;9980;51.020;7.772;2022-09-09T03:03:07;16.90;98.80
19665;DHT22;9980;51.020;7.772;2022-09-09T03:05:39;16.90;98.80
19665;DHT22;9980;51.020;7.772;2022-09-09T03:08:11;16.90;98.60
19665;DHT22;9980;51.020;7.772;2022-09-09T03:10:40;16.90;98.60
19665;DHT22;9980;51.020;7.772;2022-09-09T03:13:09;16.90;98.80
19665;DHT22;9980;51.020;7.772;2022-09-09T03:15:38;16.90;98.80
19665;DHT22;9980;51.020;7.772;2022-09-09T03:18:11;16.80;98.80
19665;DHT22;9980;51.020;7.772;2022-09-09T03:20:38;16.90;98.90
19665;DHT22;9980;51.020;7.772;2022-09-09T03:23:08;16.80;99.00
19665;DHT22;9980;51.020;7.772;2022-09-09T03:25:47;16.80;99.10
19665;DHT22;9980;51.020;7.772;2022-09-09T03:28:18;16.80;99.20
19665;DHT22;9980;51.020;7.772;2022-09-09T03:30:45;16.80;99.10
19665;DHT22;9980;51.020;7.772;2022-09-09T03:33:12;16.80;99.20
19665;DHT22;9980;51.020;7.772;2022-09-09T03:35:46;16.80;99.10
19665;DHT22;9980;51.020;7.772;2022-09-09T03:38:17;16.80;99.20
19665;DHT22;9980;51.020;7.772;2022-09-09T03:40:54;16.80;99.20
19665;DHT22;9980;51.020;7.772;2022-09-09T03:43:25;16.80;99.20
19665;DHT22;9980;51.020;7.772;2022-09-09T03:45:53;16.80;99.30
19665;DHT22;9980;51.020;7.772;2022-09-09T03:48:25;16.80;99.40
19665;DHT22;9980;51.020;7.772;2022-09-09T03:50:55;16.80;99.50
19665;DHT22;9980;51.020;7.772;2022-09-09T03:53:24;16.80;99.60
19665;DHT22;9980;51.020;7.772;2022-09-09T03:55:54;16.80;99.60
19665;DHT22;9980;51.020;7.772;2022-09-09T03:58:25;16.90;99.70
19665;DHT22;9980;51.020;7.772;2022-09-09T04:01:02;16.90;99.90
19665;DHT22;9980;51.020;7.772;2022-09-09T04:03:31;16.90;99.70
19665;DHT22;9980;51.020;7.772;2022-09-09T04:06:00;16.90;99.80
19665;DHT22;9980;51.020;7.772;2022-09-09T04:08:30;16.90;99.80
19665;DHT22;9980;51.020;7.772;2022-09-09T04:10:59;16.90;99.90
19665;DHT22;9980;51.020;7.772;2022-09-09T04:13:28;16.90;99.90
19665;DHT22;9980;51.020;7.772;2022-09-09T04:15:58;16.90;99.90
19665;DHT22;9980;51.020;7.772;2022-09-09T04:18:27;17.00;99.90
19665;DHT22;9980;51.020;7.772;2022-09-09T04:20:55;16.90;99.90
19665;DHT22;9980;51.020;7.772;2022-09-09T04:23:28;17.00;99.90
19665;DHT22;9980;51.020;7.772;2022-09-09T04:25:59;17.00;99.90
19665;DHT22;9980;51.020;7.772;2022-09-09T04:28:29;17.10;99.90
19665;DHT22;9980;51.020;7.772;2022-09-09T04:31:05;17.00;99.90
19665;DHT22;9980;51.020;7.772;2022-09-09T04:33:34;17.10;99.90
19665;DHT22;9980;51.020;7.772;2022-09-09T04:36:06;17.10;99.90
19665;DHT22;9980;51.020;7.772;2022-09-09T04:38:34;17.10;99.90
19665;DHT22;9980;51.020;7.772;2022-09-09T04:41:02;17.10;99.90
19665;DHT22;9980;51.020;7.772;2022-09-09T04:43:31;17.20;99.90
19665;DHT22;9980;51.020;7.772;2022-09-09T04:46:00;17.20;99.90
19665;DHT22;9980;51.020;7.772;2022-09-09T04:48:27;17.20;99.90
19665;DHT22;9980;51.020;7.772;2022-09-09T04:50:56;17.20;99.90
19665;DHT22;9980;51.020;7.772;2022-09-09T04:53:25;17.20;99.80
19665;DHT22;9980;51.020;7.772;2022-09-09T04:56:04;17.20;99.90
19665;DHT22;9980;51.020;7.772;2022-09-09T04:58:38;17.20;99.90
19665;DHT22;9980;51.020;7.772;2022-09-09T05:01:12;17.30;99.80
19665;DHT22;9980;51.020;7.772;2022-09-09T05:03:43;17.30;99.80
19665;DHT22;9980;51.020;7.772;2022-09-09T05:06:19;17.30;99.80
19665;DHT22;9980;51.020;7.772;2022-09-09T05:08:50;17.30;99.80
19665;DHT22;9980;51.020;7.772;2022-09-09T05:11:24;17.30;99.80
19665;DHT22;9980;51.020;7.772;2022-09-09T05:13:58;17.30;99.90
19665;DHT22;9980;51.020;7.772;2022-09-09T05:16:26;17.30;99.90
19665;DHT22;9980;51.020;7.772;2022-09-09T05:18:53;17.30;99.90
19665;DHT22;9980;51.020;7.772;2022-09-09T05:21:23;17.40;99.90
19665;DHT22;9980;51.020;7.772;2022-09-09T05:23:52;17.40;99.90
19665;DHT22;9980;51.020;7.772;2022-09-09T05:26:21;17.40;99.90
19665;DHT22;9980;51.020;7.772;2022-09-09T05:28:51;17.40;99.90
19665;DHT22;9980;51.020;7.772;2022-09-09T05:31:19;17.40;99.90
19665;DHT22;9980;51.020;7.772;2022-09-09T05:33:49;17.50;99.90
19665;DHT22;9980;51.020;7.772;2022-09-09T05:36:21;17.50;99.90
19665;DHT22;9980;51.020;7.772;2022-09-09T05:38:53;17.50;99.90
19665;DHT22;9980;51.020;7.772;2022-09-09T05:41:20;17.50;99.90
19665;DHT22;9980;51.020;7.772;2022-09-09T05:43:52;17.60;99.90
19665;DHT22;9980;51.020;7.772;2022-09-09T05:46:22;17.60;99.90
19665;DHT22;9980;51.020;7.772;2022-09-09T05:48:52;17.60;99.90
19665;DHT22;9980;51.020;7.772;2022-09-09T05:51:27;17.60;99.90
19665;DHT22;9980;51.020;7.772;2022-09-09T05:53:59;17.70;99.90
19665;DHT22;9980;51.020;7.772;2022-09-09T05:56:29;17.70;99.90
19665;DHT22;9980;51.020;7.772;2022-09-09T05:58:58;17.70;99.90
19665;DHT22;9980;51.020;7.772;2022-09-09T06:01:31;17.80;99.90
19665;DHT22;9980;51.020;7.772;2022-09-09T06:04:02;17.80;99.90
19665;DHT22;9980;51.020;7.772;2022-09-09T06:06:33;17.80;99.90
19665;DHT22;9980;51.020;7.772;2022-09-09T06:09:07;17.80;99.90
19665;DHT22;9980;51.020;7.772;2022-09-09T06:11:39;17.90;99.90
19665;DHT22;9980;51.020;7.772;2022-09-09T06:14:07;17.90;99.90
19665;DHT22;9980;51.020;7.772;2022-09-09T06:16:36;17.90;99.90
19665;DHT22;9980;51.020;7.772;2022-09-09T06:19:15;18.00;99.90
19665;DHT22;9980;51.020;7.772;2022-09-09T06:21:43;18.00;99.90
19665;DHT22;9980;51.020;7.772;2022-09-09T06:24:11;18.00;99.90
19665;DHT22;9980;51.020;7.772;2022-09-09T06:26:40;18.10;99.90
19665;DHT22;9980;51.020;7.772;2022-09-09T06:29:10;18.10;99.90
19665;DHT22;9980;51.020;7.772;2022-09-09T06:31:38;18.20;99.90
19665;DHT22;9980;51.020;7.772;2022-09-09T06:34:14;18.20;99.90
19665;DHT22;9980;51.020;7.772;2022-09-09T06:36:45;18.30;99.90
19665;DHT22;9980;51.020;7.772;2022-09-09T06:39:12;18.40;99.90
19665;DHT22;9980;51.020;7.772;2022-09-09T06:41:42;18.40;99.90
19665;DHT22;9980;51.020;7.772;2022-09-09T06:44:38;18.50;99.90
19665;DHT22;9980;51.020;7.772;2022-09-09T06:47:11;18.50;99.90
19665;DHT22;9980;51.020;7.772;2022-09-09T06:49:40;18.60;99.90
19665;DHT22;9980;51.020;7.772;2022-09-09T06:52:12;18.60;99.90
19665;DHT22;9980;51.020;7.772;2022-09-09T06:54:42;18.70;99.90
19665;DHT22;9980;51.020;7.772;2022-09-09T06:57:09;18.80;99.90
19665;DHT22;9980;51.020;7.772;2022-09-09T06:59:56;18.80;99.70
19665;DHT22;9980;51.020;7.772;2022-09-09T07:02:24;18.80;99.80
19665;DHT22;9980;51.020;7.772;2022-09-09T07:04:51;18.90;99.50
19665;DHT22;9980;51.020;7.772;2022-09-09T07:07:18;18.90;99.50
19665;DHT22;9980;51.020;7.772;2022-09-09T07:09:46;19.00;99.60
19665;DHT22;9980;51.020;7.772;2022-09-09T07:12:18;19.00;99.40
19665;DHT22;9980;51.020;7.772;2022-09-09T07:14:52;19.10;99.50
19665;DHT22;9980;51.020;7.772;2022-09-09T07:17:19;19.10;99.50
19665;DHT22;9980;51.020;7.772;2022-09-09T07:19:47;19.20;99.40
19665;DHT22;9980;51.020;7.772;2022-09-09T07:22:16;19.30;99.10
19665;DHT22;9980;51.020;7.772;2022-09-09T07:24:43;19.30;99.10
19665;DHT22;9980;51.020;7.772;2022-09-09T07:27:13;19.30;98.70
19665;DHT22;9980;51.020;7.772;2022-09-09T07:29:40;19.40;98.70
19665;DHT22;9980;51.020;7.772;2022-09-09T07:32:08;19.40;98.80
19665;DHT22;9980;51.020;7.772;2022-09-09T07:34:36;19.40;98.90
19665;DHT22;9980;51.020;7.772;2022-09-09T07:37:04;19.50;98.60
19665;DHT22;9980;51.020;7.772;2022-09-09T07:39:32;19.50;98.90
19665;DHT22;9980;51.020;7.772;2022-09-09T07:42:00;19.60;98.50
19665;DHT22;9980;51.020;7.772;2022-09-09T07:44:27;19.60;98.80
19665;DHT22;9980;51.020;7.772;2022-09-09T07:47:05;19.70;98.60
19665;DHT22;9980;51.020;7.772;2022-09-09T07:49:36;19.70;98.10
19665;DHT22;9980;51.020;7.772;2022-09-09T07:52:05;19.80;98.10
19665;DHT22;9980;51.020;7.772;2022-09-09T07:54:34;19.80;98.20
19665;DHT22;9980;51.020;7.772;2022-09-09T07:57:04;19.90;98.40
19665;DHT22;9980;51.020;7.772;2022-09-09T07:59:34;20.00;98.20
19665;DHT22;9980;51.020;7.772;2022-09-09T08:02:02;20.00;98.10
19665;DHT22;9980;51.020;7.772;2022-09-09T08:04:32;20.10;97.90
19665;DHT22;9980;51.020;7.772;2022-09-09T08:07:00;20.20;97.70
19665;DHT22;9980;51.020;7.772;2022-09-09T08:09:36;20.30;97.70
19665;DHT22;9980;51.020;7.772;2022-09-09T08:12:16;20.30;97.60
19665;DHT22;9980;51.020;7.772;2022-09-09T08:14:43;20.40;97.80
19665;DHT22;9980;51.020;7.772;2022-09-09T08:17:10;20.50;97.80
19665;DHT22;9980;51.020;7.772;2022-09-09T08:19:37;20.60;97.70
19665;DHT22;9980;51.020;7.772;2022-09-09T08:22:10;20.60;97.70
19665;DHT22;9980;51.020;7.772;2022-09-09T08:24:38;20.70;97.60
19665;DHT22;9980;51.020;7.772;2022-09-09T08:27:07;20.80;97.10
19665;DHT22;9980;51.020;7.772;2022-09-09T08:29:34;20.80;96.80
19665;DHT22;9980;51.020;7.772;2022-09-09T08:32:01;20.90;96.80
19665;DHT22;9980;51.020;7.772;2022-09-09T08:34:28;21.00;96.90
19665;DHT22;9980;51.020;7.772;2022-09-09T08:36:59;21.10;96.70
19665;DHT22;9980;51.020;7.772;2022-09-09T08:39:34;21.10;96.40
19665;DHT22;9980;51.020;7.772;2022-09-09T08:42:35;21.20;96.40
19665;DHT22;9980;51.020;7.772;2022-09-09T08:45:21;21.30;96.60
19665;DHT22;9980;51.020;7.772;2022-09-09T08:50:39;21.40;95.90
19665;DHT22;9980;51.020;7.772;2022-09-09T08:53:19;21.50;95.20
19665;DHT22;9980;51.020;7.772;2022-09-09T08:55:59;21.50;95.00
19665;DHT22;9980;51.020;7.772;2022-09-09T08:58:51;21.50;95.80
19665;DHT22;9980;51.020;7.772;2022-09-09T09:02:00;21.60;95.00
19665;DHT22;9980;51.020;7.772;2022-09-09T09:08:03;21.70;94.70
19665;DHT22;9980;51.020;7.772;2022-09-09T09:10:57;21.80;94.40
19665;DHT22;9980;51.020;7.772;2022-09-09T09:13:48;21.90;94.40
19665;DHT22;9980;51.020;7.772;2022-09-09T09:16:29;21.90;94.60
19665;DHT22;9980;51.020;7.772;2022-09-09T09:19:06;21.90;94.00
19665;DHT22;9980;51.020;7.772;2022-09-09T09:21:48;21.90;94.40
19665;DHT22;9980;51.020;7.772;2022-09-09T09:24:42;21.90;94.40
19665;DHT22;9980;51.020;7.772;2022-09-09T09:27:40;22.00;94.20
19665;DHT22;9980;51.020;7.772;2022-09-09T09:30:22;22.00;94.50
19665;DHT22;9980;51.020;7.772;2022-09-09T09:35:56;21.90;93.80
19665;DHT22;9980;51.020;7.772;2022-09-09T09:38:26;21.80;94.00
19665;DHT22;9980;51.020;7.772;2022-09-09T09:41:14;21.80;94.10
19665;DHT22;9980;51.020;7.772;2022-09-09T09:43:41;21.70;94.00
19665;DHT22;9980;51.020;7.772;2022-09-09T09:46:21;21.60;94.20
19665;DHT22;9980;51.020;7.772;2022-09-09T09:49:04;21.60;93.80
19665;DHT22;9980;51.020;7.772;2022-09-09T09:51:36;21.60;93.80
19665;DHT22;9980;51.020;7.772;2022-09-09T09:56:41;21.50;94.20
19665;DHT22;9980;51.020;7.772;2022-09-09T09:59:33;21.60;94.50
19665;DHT22;9980;51.020;7.772;2022-09-09T10:02:19;21.60;94.10
19665;DHT22;9980;51.020;7.772;2022-09-09T10:05:14;21.70;95.10
19665;DHT22;9980;51.020;7.772;2022-09-09T10:08:03;21.80;94.80
19665;DHT22;9980;51.020;7.772;2022-09-09T10:10:53;21.90;94.20
19665;DHT22;9980;51.020;7.772;2022-09-09T10:19:33;22.20;93.40
19665;DHT22;9980;51.020;7.772;2022-09-09T10:22:26;22.30;93.30
19665;DHT22;9980;51.020;7.772;2022-09-09T10:28:21;22.50;93.00
19665;DHT22;9980;51.020;7.772;2022-09-09T10:34:15;22.70;92.10
19665;DHT22;9980;51.020;7.772;2022-09-09T10:40:31;22.90;92.60
19665;DHT22;9980;51.020;7.772;2022-09-09T10:55:10;23.30;90.20
19665;DHT22;9980;51.020;7.772;2022-09-09T10:57:50;23.40;90.10
19665;DHT22;9980;51.020;7.772;2022-09-09T11:00:23;23.50;90.60
19665;DHT22;9980;51.020;7.772;2022-09-09T11:03:00;23.50;89.50
19665;DHT22;9980;51.020;7.772;2022-09-09T11:05:36;23.60;90.00
19665;DHT22;9980;51.020;7.772;2022-09-09T11:08:25;23.60;87.80
19665;DHT22;9980;51.020;7.772;2022-09-09T11:11:19;23.70;86.80
19665;DHT22;9980;51.020;7.772;2022-09-09T11:16:41;23.80;88.00
19665;DHT22;9980;51.020;7.772;2022-09-09T11:19:34;23.80;86.70
19665;DHT22;9980;51.020;7.772;2022-09-09T11:25:01;23.90;87.90
19665;DHT22;9980;51.020;7.772;2022-09-09T11:33:41;24.20;86.10
19665;DHT22;9980;51.020;7.772;2022-09-09T11:44:41;24.50;84.60
19665;DHT22;9980;51.020;7.772;2022-09-09T11:47:35;24.60;83.60
19665;DHT22;9980;51.020;7.772;2022-09-09T11:50:22;24.60;83.90
19665;DHT22;9980;51.020;7.772;2022-09-09T11:53:05;24.70;85.50
19665;DHT22;9980;51.020;7.772;2022-09-09T11:55:47;24.70;83.20
19665;DHT22;9980;51.020;7.772;2022-09-09T11:58:25;24.80;85.10
19665;DHT22;9980;51.020;7.772;2022-09-09T12:00:54;24.90;83.50
19665;DHT22;9980;51.020;7.772;2022-09-09T12:03:46;25.00;82.60
19665;DHT22;9980;51.020;7.772;2022-09-09T12:06:32;25.00;81.60
19665;DHT22;9980;51.020;7.772;2022-09-09T12:09:13;25.10;80.20
19665;DHT22;9980;51.020;7.772;2022-09-09T12:11:50;25.10;80.00
19665;DHT22;9980;51.020;7.772;2022-09-09T12:14:43;25.10;81.00
19665;DHT22;9980;51.020;7.772;2022-09-09T12:17:23;25.10;79.00
19665;DHT22;9980;51.020;7.772;2022-09-09T12:31:17;25.00;78.20
19665;DHT22;9980;51.020;7.772;2022-09-09T12:34:16;25.00;78.60
19665;DHT22;9980;51.020;7.772;2022-09-09T12:36:58;25.00;77.50
19665;DHT22;9980;51.020;7.772;2022-09-09T12:39:35;24.90;77.30
19665;DHT22;9980;51.020;7.772;2022-09-09T12:42:21;24.90;78.20
19665;DHT22;9980;51.020;7.772;2022-09-09T12:44:58;24.90;78.80
19665;DHT22;9980;51.020;7.772;2022-09-09T12:47:41;24.90;79.00
19665;DHT22;9980;51.020;7.772;2022-09-09T12:50:21;24.90;78.50
19665;DHT22;9980;51.020;7.772;2022-09-09T12:52:55;25.00;77.00
19665;DHT22;9980;51.020;7.772;2022-09-09T12:55:29;25.00;78.40
19665;DHT22;9980;51.020;7.772;2022-09-09T12:58:01;25.10;77.40
19665;DHT22;9980;51.020;7.772;2022-09-09T13:00:33;25.10;76.60
19665;DHT22;9980;51.020;7.772;2022-09-09T13:03:13;25.10;78.00
19665;DHT22;9980;51.020;7.772;2022-09-09T13:05:43;25.10;76.90
19665;DHT22;9980;51.020;7.772;2022-09-09T13:08:12;25.10;76.50
19665;DHT22;9980;51.020;7.772;2022-09-09T13:10:49;25.10;76.50
19665;DHT22;9980;51.020;7.772;2022-09-09T13:13:40;25.10;78.20
19665;DHT22;9980;51.020;7.772;2022-09-09T13:16:26;25.10;76.00
19665;DHT22;9980;51.020;7.772;2022-09-09T13:19:14;25.10;76.10
19665;DHT22;9980;51.020;7.772;2022-09-09T13:21:43;25.10;77.30
19665;DHT22;9980;51.020;7.772;2022-09-09T13:24:34;25.10;76.00
19665;DHT22;9980;51.020;7.772;2022-09-09T13:27:04;25.10;75.40
19665;DHT22;9980;51.020;7.772;2022-09-09T13:29:54;25.20;76.20
19665;DHT22;9980;51.020;7.772;2022-09-09T13:32:24;25.20;76.70
19665;DHT22;9980;51.020;7.772;2022-09-09T13:34:57;25.20;75.40
19665;DHT22;9980;51.020;7.772;2022-09-09T13:37:37;25.20;76.80
19665;DHT22;9980;51.020;7.772;2022-09-09T13:40:18;25.20;76.20
19665;DHT22;9980;51.020;7.772;2022-09-09T13:42:52;25.30;77.00
19665;DHT22;9980;51.020;7.772;2022-09-09T13:45:25;25.30;76.00
19665;DHT22;9980;51.020;7.772;2022-09-09T13:47:55;25.30;75.70
19665;DHT22;9980;51.020;7.772;2022-09-09T13:50:29;25.30;75.10
19665;DHT22;9980;51.020;7.772;2022-09-09T13:52:58;25.30;73.60
19665;DHT22;9980;51.020;7.772;2022-09-09T13:55:29;25.30;75.90
19665;DHT22;9980;51.020;7.772;2022-09-09T13:57:59;25.30;73.50
19665;DHT22;9980;51.020;7.772;2022-09-09T14:00:33;25.30;73.40
19665;DHT22;9980;51.020;7.772;2022-09-09T14:03:01;25.30;74.30
19665;DHT22;9980;51.020;7.772;2022-09-09T14:05:31;25.30;74.50
19665;DHT22;9980;51.020;7.772;2022-09-09T14:07:59;25.30;72.70
19665;DHT22;9980;51.020;7.772;2022-09-09T14:10:29;25.30;73.90
19665;DHT22;9980;51.020;7.772;2022-09-09T14:12:56;25.30;72.90
19665;DHT22;9980;51.020;7.772;2022-09-09T14:15:23;25.30;72.10
19665;DHT22;9980;51.020;7.772;2022-09-09T14:17:50;25.30;71.60
19665;DHT22;9980;51.020;7.772;2022-09-09T14:20:18;25.20;72.00
19665;DHT22;9980;51.020;7.772;2022-09-09T14:22:45;25.20;71.90
19665;DHT22;9980;51.020;7.772;2022-09-09T14:25:13;25.10;72.30
19665;DHT22;9980;51.020;7.772;2022-09-09T14:27:40;25.10;72.30
19665;DHT22;9980;51.020;7.772;2022-09-09T14:30:09;25.00;72.00
19665;DHT22;9980;51.020;7.772;2022-09-09T14:32:36;25.00;71.90
19665;DHT22;9980;51.020;7.772;2022-09-09T14:35:09;24.90;72.10
19665;DHT22;9980;51.020;7.772;2022-09-09T14:37:36;24.90;72.30
19665;DHT22;9980;51.020;7.772;2022-09-09T14:40:03;24.80;72.60
19665;DHT22;9980;51.020;7.772;2022-09-09T14:42:30;24.80;72.40
19665;DHT22;9980;51.020;7.772;2022-09-09T14:44:57;24.70;71.60
19665;DHT22;9980;51.020;7.772;2022-09-09T14:47:24;24.60;72.60
19665;DHT22;9980;51.020;7.772;2022-09-09T14:49:52;24.60;73.10
19665;DHT22;9980;51.020;7.772;2022-09-09T14:52:20;24.50;73.00
19665;DHT22;9980;51.020;7.772;2022-09-09T14:54:47;24.40;73.30
19665;DHT22;9980;51.020;7.772;2022-09-09T14:57:14;24.40;74.10
19665;DHT22;9980;51.020;7.772;2022-09-09T14:59:41;24.30;73.50
19665;DHT22;9980;51.020;7.772;2022-09-09T15:02:09;24.20;74.60
19665;DHT22;9980;51.020;7.772;2022-09-09T15:04:36;24.20;75.00
19665;DHT22;9980;51.020;7.772;2022-09-09T15:07:03;24.30;75.70
19665;DHT22;9980;51.020;7.772;2022-09-09T15:09:29;24.20;76.10
19665;DHT22;9980;51.020;7.772;2022-09-09T15:11:56;24.30;75.60
19665;DHT22;9980;51.020;7.772;2022-09-09T15:14:23;24.30;75.50
19665;DHT22;9980;51.020;7.772;2022-09-09T15:16:51;24.30;74.90
19665;DHT22;9980;51.020;7.772;2022-09-09T15:19:18;24.30;74.80
19665;DHT22;9980;51.020;7.772;2022-09-09T15:21:45;24.20;75.40
19665;DHT22;9980;51.020;7.772;2022-09-09T15:24:12;24.20;75.70
19665;DHT22;9980;51.020;7.772;2022-09-09T15:26:40;24.10;75.30
19665;DHT22;9980;51.020;7.772;2022-09-09T15:29:07;24.10;76.10
19665;DHT22;9980;51.020;7.772;2022-09-09T15:31:35;24.00;76.10
19665;DHT22;9980;51.020;7.772;2022-09-09T15:34:04;23.90;76.80
19665;DHT22;9980;51.020;7.772;2022-09-09T15:36:42;23.90;77.20
19665;DHT22;9980;51.020;7.772;2022-09-09T15:39:12;23.80;77.30
19665;DHT22;9980;51.020;7.772;2022-09-09T15:41:47;23.80;77.60
19665;DHT22;9980;51.020;7.772;2022-09-09T15:44:15;23.70;77.00
19665;DHT22;9980;51.020;7.772;2022-09-09T15:46:50;23.70;77.00
19665;DHT22;9980;51.020;7.772;2022-09-09T15:49:24;23.60;77.50
19665;DHT22;9980;51.020;7.772;2022-09-09T15:51:55;23.60;77.60
19665;DHT22;9980;51.020;7.772;2022-09-09T15:54:25;23.50;77.20
19665;DHT22;9980;51.020;7.772;2022-09-09T15:56:55;23.40;77.90
19665;DHT22;9980;51.020;7.772;2022-09-09T15:59:25;23.30;77.40
19665;DHT22;9980;51.020;7.772;2022-09-09T16:01:54;23.20;78.20
19665;DHT22;9980;51.020;7.772;2022-09-09T16:04:23;23.10;78.60
19665;DHT22;9980;51.020;7.772;2022-09-09T16:07:04;23.00;78.80
19665;DHT22;9980;51.020;7.772;2022-09-09T16:09:32;22.90;79.40
19665;DHT22;9980;51.020;7.772;2022-09-09T16:12:03;22.70;79.90
19665;DHT22;9980;51.020;7.772;2022-09-09T16:14:33;22.60;80.30
19665;DHT22;9980;51.020;7.772;2022-09-09T16:17:02;22.50;80.80
19665;DHT22;9980;51.020;7.772;2022-09-09T16:19:30;22.40;81.40
19665;DHT22;9980;51.020;7.772;2022-09-09T16:22:01;22.30;82.00
19665;DHT22;9980;51.020;7.772;2022-09-09T16:24:29;22.20;82.30
19665;DHT22;9980;51.020;7.772;2022-09-09T16:26:56;22.10;82.80
19665;DHT22;9980;51.020;7.772;2022-09-09T16:29:23;22.00;83.50
19665;DHT22;9980;51.020;7.772;2022-09-09T16:31:50;21.90;84.10
19665;DHT22;9980;51.020;7.772;2022-09-09T16:34:18;21.80;84.50
19665;DHT22;9980;51.020;7.772;2022-09-09T16:36:47;21.80;85.00
19665;DHT22;9980;51.020;7.772;2022-09-09T16:39:19;21.70;84.80
19665;DHT22;9980;51.020;7.772;2022-09-09T16:41:48;21.60;84.50
19665;DHT22;9980;51.020;7.772;2022-09-09T16:44:16;21.40;84.20
19665;DHT22;9980;51.020;7.772;2022-09-09T16:46:46;21.30;84.00
19665;DHT22;9980;51.020;7.772;2022-09-09T16:49:26;21.10;84.30
19665;DHT22;9980;51.020;7.772;2022-09-09T16:51:57;21.00;85.10
19665;DHT22;9980;51.020;7.772;2022-09-09T16:54:28;20.80;85.80
19665;DHT22;9980;51.020;7.772;2022-09-09T16:56:59;20.70;86.30
19665;DHT22;9980;51.020;7.772;2022-09-09T16:59:27;20.50;87.00
19665;DHT22;9980;51.020;7.772;2022-09-09T17:01:54;20.40;87.00
19665;DHT22;9980;51.020;7.772;2022-09-09T17:04:24;20.30;87.20
19665;DHT22;9980;51.020;7.772;2022-09-09T17:06:53;20.20;88.00
19665;DHT22;9980;51.020;7.772;2022-09-09T17:09:22;20.10;88.40
19665;DHT22;9980;51.020;7.772;2022-09-09T17:11:50;20.00;88.60
19665;DHT22;9980;51.020;7.772;2022-09-09T17:14:20;19.90;89.10
19665;DHT22;9980;51.020;7.772;2022-09-09T17:16:48;19.80;89.60
19665;DHT22;9980;51.020;7.772;2022-09-09T17:19:15;19.80;89.70
19665;DHT22;9980;51.020;7.772;2022-09-09T17:21:42;19.70;90.10
19665;DHT22;9980;51.020;7.772;2022-09-09T17:24:29;19.60;90.10
19665;DHT22;9980;51.020;7.772;2022-09-09T17:26:57;19.60;90.40
19665;DHT22;9980;51.020;7.772;2022-09-09T17:29:24;19.60;90.60
19665;DHT22;9980;51.020;7.772;2022-09-09T17:31:52;19.50;90.80
19665;DHT22;9980;51.020;7.772;2022-09-09T17:34:20;19.50;90.90
19665;DHT22;9980;51.020;7.772;2022-09-09T17:36:47;19.50;91.10
19665;DHT22;9980;51.020;7.772;2022-09-09T17:39:14;19.50;91.20
19665;DHT22;9980;51.020;7.772;2022-09-09T17:41:41;19.40;91.30
19665;DHT22;9980;51.020;7.772;2022-09-09T17:44:09;19.40;91.30
19665;DHT22;9980;51.020;7.772;2022-09-09T17:46:41;19.40;91.50
19665;DHT22;9980;51.020;7.772;2022-09-09T17:49:12;19.30;91.50
19665;DHT22;9980;51.020;7.772;2022-09-09T17:51:41;19.30;91.50
19665;DHT22;9980;51.020;7.772;2022-09-09T17:54:12;19.20;91.60
19665;DHT22;9980;51.020;7.772;2022-09-09T17:56:41;19.20;91.70
19665;DHT22;9980;51.020;7.772;2022-09-09T17:59:10;19.20;91.70
19665;DHT22;9980;51.020;7.772;2022-09-09T18:01:41;19.20;91.80
19665;DHT22;9980;51.020;7.772;2022-09-09T18:04:12;19.10;91.90
19665;DHT22;9980;51.020;7.772;2022-09-09T18:06:46;19.10;92.10
19665;DHT22;9980;51.020;7.772;2022-09-09T18:09:18;19.00;92.40
19665;DHT22;9980;51.020;7.772;2022-09-09T18:11:50;19.00;92.50
19665;DHT22;9980;51.020;7.772;2022-09-09T18:14:25;19.00;92.50
19665;DHT22;9980;51.020;7.772;2022-09-09T18:16:59;19.00;92.90
19665;DHT22;9980;51.020;7.772;2022-09-09T18:19:29;18.90;93.20